Time;durP1;ratioP1;P1;durP2;ratioP2;P2;SDS_P1;SDS_P2;PMS_P1;PMS_P2;Temp;Humidity;BMP_temperature;BMP_pressure;BME280_temperature;BME280_humidity;BME280_pressure;Samples;Min_cycle;Max_cycle;Signal;HPM_P1;HPM_P2
2022/08/08 00:00:59;;;;;;;;;;;20.00;73.70;;;;;;5014925;28;19905;-74
2022/08/08 00:03:46;;;;;;;;;;;20.00;73.80;;;;;;5014830;28;19932;-69
2022/08/08 00:06:32;;;;;;;;;;;20.00;73.90;;;;;;5014974;28;19905;-74
2022/08/08 00:09:01;;;;;;;;;;;20.00;73.90;;;;;;5006665;28;20292;-74
2022/08/08 00:11:32;;;;;;;;;;;20.00;74.10;;;;;;5014309;28;20288;-74
2022/08/08 00:14:00;;;;;;;;;;;20.00;74.20;;;;;;5015009;28;20350;-69
2022/08/08 00:16:46;;;;;;;;;;;19.90;74.30;;;;;;5014898;28;20306;-74
2022/08/08 00:19:19;;;;;;;;;;;19.90;74.40;;;;;;5013875;28;19905;-74
2022/08/08 00:21:47;;;;;;;;;;;19.90;74.60;;;;;;5014439;28;19905;-74
2022/08/08 00:24:18;;;;;;;;;;;19.80;74.70;;;;;;5014281;28;20460;-74
2022/08/08 00:26:47;;;;;;;;;;;19.80;75.00;;;;;;5014154;28;19947;-69
2022/08/08 00:29:30;;;;;;;;;;;19.80;75.00;;;;;;5013647;28;19932;-74
2022/08/08 00:32:03;;;;;;;;;;;19.80;75.60;;;;;;5013855;28;19956;-74
2022/08/08 00:37:36;;;;;;;;;;;19.60;75.60;;;;;;5014442;28;19982;-74
2022/08/08 00:40:11;;;;;;;;;;;19.60;75.80;;;;;;4994771;28;19921;-74
2022/08/08 00:42:39;;;;;;;;;;;19.50;76.10;;;;;;4994183;28;19913;-74
2022/08/08 00:45:04;;;;;;;;;;;19.40;76.40;;;;;;4993030;28;20274;-74
2022/08/08 00:47:39;;;;;;;;;;;19.40;76.70;;;;;;5001122;28;19928;-74
2022/08/08 00:50:07;;;;;;;;;;;19.30;76.70;;;;;;5014393;28;19905;-74
2022/08/08 00:52:33;;;;;;;;;;;19.30;76.90;;;;;;5014058;28;19926;-69
2022/08/08 00:54:58;;;;;;;;;;;19.20;77.00;;;;;;5014261;28;20363;-74
2022/08/08 00:57:52;;;;;;;;;;;19.20;77.30;;;;;;5013860;28;19905;-74
2022/08/08 01:00:18;;;;;;;;;;;19.20;77.30;;;;;;5014114;28;19996;-69
2022/08/08 01:03:02;;;;;;;;;;;19.10;77.50;;;;;;5013850;28;20352;-74
2022/08/08 01:05:37;;;;;;;;;;;19.10;77.70;;;;;;5013942;28;19906;-69
2022/08/08 01:08:21;;;;;;;;;;;19.00;77.70;;;;;;5013648;28;20296;-74
2022/08/08 01:10:55;;;;;;;;;;;19.00;77.70;;;;;;5013848;28;20336;-69
2022/08/08 01:13:30;;;;;;;;;;;19.10;78.00;;;;;;5013385;28;19912;-74
2022/08/08 01:15:55;;;;;;;;;;;19.00;77.90;;;;;;5013389;28;19928;-74
2022/08/08 01:18:31;;;;;;;;;;;19.00;78.00;;;;;;5013457;28;20388;-70
2022/08/08 01:21:08;;;;;;;;;;;19.00;78.10;;;;;;5013771;28;20313;-74
2022/08/08 01:23:42;;;;;;;;;;;19.00;78.20;;;;;;5013439;28;19948;-74
2022/08/08 01:26:34;;;;;;;;;;;18.90;78.20;;;;;;5013948;28;19912;-74
2022/08/08 01:29:02;;;;;;;;;;;18.90;78.30;;;;;;5012673;28;19909;-74
2022/08/08 01:31:43;;;;;;;;;;;18.90;78.30;;;;;;5013617;28;19912;-69
2022/08/08 01:34:09;;;;;;;;;;;18.80;78.90;;;;;;5013467;28;20382;-74
2022/08/08 01:36:58;;;;;;;;;;;18.80;78.60;;;;;;5013650;28;19905;-73
2022/08/08 01:39:37;;;;;;;;;;;18.90;78.70;;;;;;5010647;28;19917;-74
2022/08/08 01:42:17;;;;;;;;;;;18.80;79.10;;;;;;5014137;28;20449;-74
2022/08/08 01:44:43;;;;;;;;;;;18.80;78.80;;;;;;5017386;28;19995;-74
2022/08/08 01:47:20;;;;;;;;;;;18.80;78.90;;;;;;5013714;28;19949;-69
2022/08/08 01:50:04;;;;;;;;;;;18.80;79.10;;;;;;4997994;28;20003;-74
2022/08/08 01:52:48;;;;;;;;;;;18.80;79.10;;;;;;4997795;28;19922;-74
2022/08/08 01:55:19;;;;;;;;;;;18.90;79.00;;;;;;4996901;28;20391;-74
2022/08/08 01:57:48;;;;;;;;;;;18.90;79.00;;;;;;4997723;28;19912;-74
2022/08/08 02:00:16;;;;;;;;;;;19.00;79.60;;;;;;4997697;28;19906;-69
2022/08/08 02:02:57;;;;;;;;;;;19.00;78.90;;;;;;4998489;28;19913;-74
2022/08/08 02:05:36;;;;;;;;;;;19.00;79.20;;;;;;5017093;28;19906;-74
2022/08/08 02:08:20;;;;;;;;;;;19.00;79.10;;;;;;5017397;28;19944;-74
2022/08/08 02:10:45;;;;;;;;;;;19.00;79.20;;;;;;5016820;28;19909;-69
2022/08/08 02:13:11;;;;;;;;;;;19.00;79.20;;;;;;5016146;28;19992;-74
2022/08/08 02:15:50;;;;;;;;;;;19.00;79.20;;;;;;5016947;28;19949;-70
2022/08/08 02:18:34;;;;;;;;;;;19.10;79.30;;;;;;5016385;28;19955;-74
2022/08/08 02:24:07;;;;;;;;;;;19.10;79.30;;;;;;5016616;28;20276;-69
2022/08/08 02:26:45;;;;;;;;;;;19.20;79.30;;;;;;5013385;28;19910;-69
2022/08/08 02:29:29;;;;;;;;;;;19.30;79.10;;;;;;5016124;28;20024;-74
2022/08/08 02:32:03;;;;;;;;;;;19.30;79.10;;;;;;5016866;28;19905;-74
2022/08/08 02:34:57;;;;;;;;;;;19.30;79.10;;;;;;5016585;28;19909;-70
2022/08/08 02:37:28;;;;;;;;;;;19.30;79.10;;;;;;5016652;28;19992;-69
2022/08/08 02:39:53;;;;;;;;;;;19.30;79.10;;;;;;5016429;28;19916;-69
2022/08/08 02:42:42;;;;;;;;;;;19.30;79.30;;;;;;5016112;28;19913;-74
2022/08/08 02:45:22;;;;;;;;;;;19.40;79.30;;;;;;4997393;28;19909;-70
2022/08/08 02:48:06;;;;;;;;;;;19.40;79.30;;;;;;5007135;28;20004;-74
2022/08/08 02:50:32;;;;;;;;;;;19.40;79.40;;;;;;4996743;28;19912;-69
2022/08/08 02:53:00;;;;;;;;;;;19.30;80.00;;;;;;4996498;28;19918;-74
2022/08/08 02:55:50;;;;;;;;;;;19.30;79.40;;;;;;4995884;28;19913;-74
2022/08/08 02:58:31;;;;;;;;;;;19.40;79.60;;;;;;4996778;28;19906;-74
2022/08/08 03:00:59;;;;;;;;;;;19.40;79.60;;;;;;4996512;28;19933;-74
2022/08/08 03:03:27;;;;;;;;;;;19.30;79.70;;;;;;5003854;28;20422;-69
2022/08/08 03:06:01;;;;;;;;;;;19.30;79.80;;;;;;5016131;28;19912;-70
2022/08/08 03:08:45;;;;;;;;;;;19.20;80.00;;;;;;5016148;28;19992;-74
2022/08/08 03:11:30;;;;;;;;;;;19.20;80.00;;;;;;5015908;28;19991;-69
2022/08/08 03:14:14;;;;;;;;;;;19.20;80.10;;;;;;5016250;28;19959;-74
2022/08/08 03:16:40;;;;;;;;;;;19.20;80.20;;;;;;5016112;28;19952;-70
2022/08/08 03:19:09;;;;;;;;;;;19.10;80.30;;;;;;5015635;28;20343;-74
2022/08/08 03:21:34;;;;;;;;;;;19.10;80.40;;;;;;5015739;28;19905;-74
2022/08/08 03:23:59;;;;;;;;;;;19.10;80.40;;;;;;5015437;28;20479;-74
2022/08/08 03:26:28;;;;;;;;;;;19.10;80.50;;;;;;5015597;28;19952;-74
2022/08/08 03:28:57;;;;;;;;;;;19.10;80.70;;;;;;5015732;28;19913;-74
2022/08/08 03:34:08;;;;;;;;;;;18.90;81.20;;;;;;5015604;28;19992;-74
2022/08/08 03:36:39;;;;;;;;;;;18.90;81.20;;;;;;5015756;28;20365;-74
2022/08/08 03:39:04;;;;;;;;;;;18.90;81.40;;;;;;5015807;28;20344;-74
2022/08/08 03:41:31;;;;;;;;;;;18.80;81.60;;;;;;5015148;28;19920;-69
2022/08/08 03:43:57;;;;;;;;;;;18.80;81.80;;;;;;5015587;28;20257;-69
2022/08/08 03:46:22;;;;;;;;;;;18.70;82.10;;;;;;5015322;28;19913;-74
2022/08/08 03:48:55;;;;;;;;;;;18.60;82.40;;;;;;4997934;28;19910;-74
2022/08/08 03:51:20;;;;;;;;;;;18.60;82.40;;;;;;4995755;28;20026;-74
2022/08/08 03:53:46;;;;;;;;;;;18.60;82.60;;;;;;4995526;28;20436;-74
2022/08/08 03:56:13;;;;;;;;;;;18.50;82.70;;;;;;4995483;28;19906;-69
2022/08/08 03:58:39;;;;;;;;;;;18.50;82.80;;;;;;4995520;28;19985;-69
2022/08/08 04:01:05;;;;;;;;;;;18.50;83.00;;;;;;4995403;28;19905;-74
2022/08/08 04:03:37;;;;;;;;;;;18.40;83.10;;;;;;5003378;28;19916;-74
2022/08/08 04:06:04;;;;;;;;;;;18.40;83.10;;;;;;5013885;28;19951;-69
2022/08/08 04:08:29;;;;;;;;;;;18.40;83.20;;;;;;5014792;28;20000;-69
2022/08/08 04:10:55;;;;;;;;;;;18.40;83.30;;;;;;5014780;28;19953;-70
2022/08/08 04:13:20;;;;;;;;;;;18.40;83.40;;;;;;5014117;28;19912;-70
2022/08/08 04:15:46;;;;;;;;;;;18.30;83.60;;;;;;5014150;28;20369;-74
2022/08/08 04:18:12;;;;;;;;;;;18.30;83.70;;;;;;5014463;28;19906;-74
2022/08/08 04:20:37;;;;;;;;;;;18.30;83.90;;;;;;5014769;28;19905;-69
2022/08/08 04:23:03;;;;;;;;;;;18.20;84.10;;;;;;5014249;28;19913;-69
2022/08/08 04:25:29;;;;;;;;;;;18.20;84.20;;;;;;5014859;28;19910;-74
2022/08/08 04:27:55;;;;;;;;;;;18.20;84.30;;;;;;5014323;28;20041;-74
2022/08/08 04:30:20;;;;;;;;;;;18.10;84.40;;;;;;5014143;28;20336;-70
2022/08/08 04:32:46;;;;;;;;;;;18.10;84.40;;;;;;5014410;28;19909;-70
2022/08/08 04:35:12;;;;;;;;;;;18.10;84.70;;;;;;5014293;28;19937;-70
2022/08/08 04:37:37;;;;;;;;;;;18.10;84.90;;;;;;5014225;28;20000;-73
2022/08/08 04:40:03;;;;;;;;;;;18.00;85.00;;;;;;5014601;28;20014;-74
2022/08/08 04:42:32;;;;;;;;;;;18.00;85.10;;;;;;5014121;28;19955;-74
2022/08/08 04:45:01;;;;;;;;;;;18.00;85.40;;;;;;5014534;28;19960;-74
2022/08/08 04:47:26;;;;;;;;;;;17.90;85.50;;;;;;5008119;28;19956;-69
2022/08/08 04:49:52;;;;;;;;;;;17.80;85.80;;;;;;4994810;28;19906;-70
2022/08/08 04:52:17;;;;;;;;;;;17.80;85.90;;;;;;4994538;28;19917;-69
2022/08/08 04:54:43;;;;;;;;;;;17.80;86.20;;;;;;4994699;28;20361;-74
2022/08/08 04:57:09;;;;;;;;;;;17.70;86.20;;;;;;4994151;28;19910;-74
2022/08/08 04:59:35;;;;;;;;;;;17.70;86.60;;;;;;4994342;28;20357;-70
2022/08/08 05:02:00;;;;;;;;;;;17.70;86.70;;;;;;4994439;28;20039;-69
2022/08/08 05:04:26;;;;;;;;;;;17.70;86.70;;;;;;5009708;28;19910;-69
2022/08/08 05:06:51;;;;;;;;;;;17.70;87.10;;;;;;5014025;28;19949;-74
2022/08/08 05:09:17;;;;;;;;;;;17.60;87.10;;;;;;5012700;28;20388;-69
2022/08/08 05:11:43;;;;;;;;;;;17.60;87.30;;;;;;5013596;28;19910;-74
2022/08/08 05:14:10;;;;;;;;;;;17.60;87.40;;;;;;5014336;28;19912;-70
2022/08/08 05:16:35;;;;;;;;;;;17.60;87.50;;;;;;5013183;28;19921;-69
2022/08/08 05:19:01;;;;;;;;;;;17.60;87.60;;;;;;5013165;28;19905;-74
2022/08/08 05:21:26;;;;;;;;;;;17.60;87.60;;;;;;5013711;28;19996;-69
2022/08/08 05:23:53;;;;;;;;;;;17.70;87.70;;;;;;5013677;28;19932;-74
2022/08/08 05:26:19;;;;;;;;;;;17.70;87.70;;;;;;5013890;28;19906;-69
2022/08/08 05:28:44;;;;;;;;;;;17.70;87.70;;;;;;5013078;28;19952;-69
2022/08/08 05:31:11;;;;;;;;;;;17.80;87.50;;;;;;5012770;28;19955;-74
2022/08/08 05:33:36;;;;;;;;;;;17.90;87.50;;;;;;5013761;28;20344;-74
2022/08/08 05:36:02;;;;;;;;;;;18.00;87.40;;;;;;5012919;28;19905;-74
2022/08/08 05:38:28;;;;;;;;;;;18.00;87.30;;;;;;5013768;28;20383;-70
2022/08/08 05:40:56;;;;;;;;;;;18.10;87.00;;;;;;5013759;28;19909;-69
2022/08/08 05:43:26;;;;;;;;;;;18.10;86.90;;;;;;5012783;28;19909;-74
2022/08/08 05:45:54;;;;;;;;;;;18.20;87.00;;;;;;5013410;28;20407;-74
2022/08/08 05:48:19;;;;;;;;;;;18.20;87.00;;;;;;5000208;28;19916;-74
2022/08/08 05:50:45;;;;;;;;;;;18.30;86.90;;;;;;4994245;28;19910;-69
2022/08/08 05:53:11;;;;;;;;;;;18.30;86.60;;;;;;5007349;28;19943;-70
2022/08/08 05:55:40;;;;;;;;;;;18.40;86.60;;;;;;5008847;28;19906;-73
2022/08/08 05:58:06;;;;;;;;;;;18.50;86.40;;;;;;5010371;28;19980;-69
2022/08/08 06:00:32;;;;;;;;;;;18.60;86.90;;;;;;5009012;28;20369;-69
2022/08/08 06:03:10;;;;;;;;;;;18.60;86.10;;;;;;5011052;28;20004;-74
2022/08/08 06:05:41;;;;;;;;;;;18.70;86.10;;;;;;5011593;28;19910;-69
2022/08/08 06:08:08;;;;;;;;;;;18.80;86.10;;;;;;5010926;28;19960;-70
2022/08/08 06:10:33;;;;;;;;;;;18.90;85.90;;;;;;5010414;28;19920;-74
2022/08/08 06:12:59;;;;;;;;;;;19.00;85.80;;;;;;5006754;28;19917;-74
2022/08/08 06:15:25;;;;;;;;;;;19.00;85.80;;;;;;5008019;28;20292;-69
2022/08/08 06:17:51;;;;;;;;;;;19.10;85.60;;;;;;5008174;28;20003;-74
2022/08/08 06:20:17;;;;;;;;;;;19.20;85.40;;;;;;5008688;28;19909;-70
2022/08/08 06:22:42;;;;;;;;;;;19.20;85.20;;;;;;5007842;28;19912;-74
2022/08/08 06:25:08;;;;;;;;;;;19.40;85.10;;;;;;5009138;28;20361;-74
2022/08/08 06:27:36;;;;;;;;;;;19.40;84.90;;;;;;5001970;28;19909;-74
2022/08/08 06:30:09;;;;;;;;;;;19.50;84.70;;;;;;5002190;28;20578;-70
2022/08/08 06:32:58;;;;;;;;;;;19.60;84.60;;;;;;4994979;28;19910;-70
2022/08/08 06:35:23;;;;;;;;;;;19.70;84.10;;;;;;4995090;28;20008;-74
2022/08/08 06:37:51;;;;;;;;;;;19.80;83.90;;;;;;4997531;28;20053;-75
2022/08/08 06:40:17;;;;;;;;;;;20.00;83.80;;;;;;5011493;28;20372;-70
2022/08/08 06:42:46;;;;;;;;;;;20.00;83.50;;;;;;5012323;28;19952;-70
2022/08/08 06:45:11;;;;;;;;;;;20.10;83.20;;;;;;5014420;28;19948;-69
2022/08/08 06:47:37;;;;;;;;;;;20.20;83.20;;;;;;5012638;28;19953;-74
2022/08/08 06:50:04;;;;;;;;;;;20.30;83.10;;;;;;5014976;28;20004;-74
2022/08/08 06:52:30;;;;;;;;;;;20.50;82.60;;;;;;5014308;28;19976;-74
2022/08/08 06:54:57;;;;;;;;;;;20.50;82.50;;;;;;5011844;28;19932;-75
2022/08/08 06:57:23;;;;;;;;;;;20.60;82.30;;;;;;5010802;28;19917;-74
2022/08/08 06:59:50;;;;;;;;;;;20.70;82.10;;;;;;5011120;28;19913;-75
2022/08/08 07:02:23;;;;;;;;;;;20.80;82.20;;;;;;5009674;28;19960;-75
2022/08/08 07:04:55;;;;;;;;;;;20.90;81.70;;;;;;5006679;28;19979;-75
2022/08/08 07:07:25;;;;;;;;;;;21.00;81.30;;;;;;5002505;28;19918;-74
2022/08/08 07:09:58;;;;;;;;;;;21.20;81.40;;;;;;5012596;28;19916;-74
2022/08/08 07:12:30;;;;;;;;;;;21.30;80.80;;;;;;5010793;28;19914;-73
2022/08/08 07:15:01;;;;;;;;;;;21.40;80.30;;;;;;5011160;28;19913;-75
2022/08/08 07:17:31;;;;;;;;;;;21.50;80.10;;;;;;5012051;28;19909;-73
2022/08/08 07:20:04;;;;;;;;;;;21.60;80.00;;;;;;5012796;28;20368;-74
2022/08/08 07:22:50;;;;;;;;;;;21.80;79.70;;;;;;5011758;28;20008;-71
2022/08/08 07:25:16;;;;;;;;;;;21.90;79.30;;;;;;4980935;28;20373;-73
2022/08/08 07:27:46;;;;;;;;;;;22.00;78.90;;;;;;5013067;28;19959;-75
2022/08/08 07:30:11;;;;;;;;;;;22.10;79.10;;;;;;5011285;28;19913;-73
2022/08/08 07:32:37;;;;;;;;;;;22.30;78.60;;;;;;5012321;28;20373;-75
2022/08/08 07:35:04;;;;;;;;;;;22.40;78.20;;;;;;5012737;28;19913;-70
2022/08/08 07:37:30;;;;;;;;;;;22.50;78.10;;;;;;5013288;28;19913;-70
2022/08/08 07:39:56;;;;;;;;;;;22.70;77.80;;;;;;5011301;28;19921;-75
2022/08/08 07:42:22;;;;;;;;;;;22.70;77.50;;;;;;5006718;28;20406;-74
2022/08/08 07:44:47;;;;;;;;;;;22.80;77.20;;;;;;5007463;28;19967;-75
2022/08/08 07:47:13;;;;;;;;;;;22.90;77.20;;;;;;5012432;28;19908;-75
2022/08/08 07:49:38;;;;;;;;;;;23.00;76.70;;;;;;5011383;28;19910;-71
2022/08/08 07:52:06;;;;;;;;;;;23.30;76.60;;;;;;5008320;28;19949;-71
2022/08/08 07:54:51;;;;;;;;;;;23.50;75.80;;;;;;5012281;28;20431;-74
2022/08/08 07:57:23;;;;;;;;;;;24.30;74.90;;;;;;5011590;28;19917;-74
2022/08/08 08:00:00;;;;;;;;;;;27.20;70.80;;;;;;5011631;28;19952;-76
2022/08/08 08:02:30;;;;;;;;;;;29.50;67.30;;;;;;5011448;28;19910;-75
2022/08/08 08:04:58;;;;;;;;;;;30.70;65.70;;;;;;5007149;28;19921;-78
2022/08/08 08:07:25;;;;;;;;;;;31.60;64.40;;;;;;5011952;28;20299;-75
2022/08/08 08:09:50;;;;;;;;;;;32.10;64.00;;;;;;5009508;28;19913;-76
2022/08/08 08:12:18;;;;;;;;;;;32.20;63.50;;;;;;5008577;28;20376;-75
2022/08/08 08:14:56;;;;;;;;;;;32.50;62.90;;;;;;5006543;28;19952;-74
2022/08/08 08:17:24;;;;;;;;;;;33.10;62.60;;;;;;5006774;28;19914;-74
2022/08/08 08:19:53;;;;;;;;;;;33.30;62.10;;;;;;5002196;28;19939;-76
2022/08/08 08:22:18;;;;;;;;;;;33.60;61.80;;;;;;5011176;28;19909;-76
2022/08/08 08:24:44;;;;;;;;;;;33.70;61.80;;;;;;5010585;28;19976;-73
2022/08/08 08:27:10;;;;;;;;;;;34.60;61.30;;;;;;5009796;28;19916;-71
2022/08/08 08:29:35;;;;;;;;;;;34.90;61.10;;;;;;5009648;28;19913;-71
2022/08/08 08:32:01;;;;;;;;;;;35.70;60.60;;;;;;5010050;28;19915;-71
2022/08/08 08:34:26;;;;;;;;;;;35.30;60.00;;;;;;5010031;28;19996;-74
2022/08/08 08:36:52;;;;;;;;;;;36.00;60.10;;;;;;5010249;28;19949;-71
2022/08/08 08:39:17;;;;;;;;;;;35.90;60.00;;;;;;5011221;28;19914;-72
2022/08/08 08:41:43;;;;;;;;;;;36.40;59.60;;;;;;5009425;28;20359;-75
2022/08/08 08:44:09;;;;;;;;;;;36.70;59.90;;;;;;5010911;28;19923;-72
2022/08/08 08:46:35;;;;;;;;;;;36.00;59.20;;;;;;5011294;28;19992;-70
2022/08/08 08:49:01;;;;;;;;;;;36.40;59.10;;;;;;5010903;28;20004;-77
2022/08/08 08:51:27;;;;;;;;;;;36.20;59.20;;;;;;5011272;28;19913;-77
2022/08/08 08:53:54;;;;;;;;;;;36.20;59.30;;;;;;5007709;28;20007;-72
2022/08/08 08:56:22;;;;;;;;;;;36.60;59.00;;;;;;5003490;28;19971;-71
2022/08/08 08:58:49;;;;;;;;;;;37.30;59.10;;;;;;5009304;28;19913;-71
2022/08/08 09:01:15;;;;;;;;;;;37.80;58.50;;;;;;5010614;28;20693;-77
2022/08/08 09:03:42;;;;;;;;;;;37.90;58.20;;;;;;5010460;28;19971;-76
2022/08/08 09:06:12;;;;;;;;;;;37.50;58.20;;;;;;5010574;28;19932;-77
2022/08/08 09:08:39;;;;;;;;;;;37.70;58.30;;;;;;5011247;28;20011;-71
2022/08/08 09:11:08;;;;;;;;;;;37.40;58.50;;;;;;5008024;28;20713;-71
2022/08/08 09:13:37;;;;;;;;;;;37.60;58.20;;;;;;5004082;28;19963;-76
2022/08/08 09:16:03;;;;;;;;;;;38.00;58.00;;;;;;5003759;28;20343;-77
2022/08/08 09:18:32;;;;;;;;;;;38.20;58.00;;;;;;5009848;28;19918;-72
2022/08/08 09:20:59;;;;;;;;;;;37.70;57.40;;;;;;4999894;28;19917;-70
2022/08/08 09:23:24;;;;;;;;;;;37.60;57.50;;;;;;5010515;28;19967;-71
2022/08/08 09:26:00;;;;;;;;;;;37.60;57.50;;;;;;5011154;28;19909;-76
2022/08/08 09:28:26;;;;;;;;;;;38.00;58.10;;;;;;5003991;28;20436;-79
2022/08/08 09:30:52;;;;;;;;;;;37.90;57.60;;;;;;5003780;28;20300;-72
2022/08/08 09:33:18;;;;;;;;;;;38.10;57.90;;;;;;5002895;28;19924;-73
2022/08/08 09:35:45;;;;;;;;;;;37.90;57.80;;;;;;5002836;28;19921;-74
2022/08/08 09:38:14;;;;;;;;;;;38.50;57.40;;;;;;5006914;28;19920;-72
2022/08/08 09:40:41;;;;;;;;;;;38.90;57.30;;;;;;5007181;28;20015;-80
2022/08/08 09:43:07;;;;;;;;;;;38.80;57.60;;;;;;5005834;28;19936;-73
2022/08/08 09:45:39;;;;;;;;;;;38.40;56.90;;;;;;5010386;28;19910;-73
2022/08/08 09:48:08;;;;;;;;;;;38.60;57.50;;;;;;5010446;28;20365;-72
2022/08/08 09:50:33;;;;;;;;;;;38.60;57.10;;;;;;5009629;28;20361;-74
2022/08/08 09:53:00;;;;;;;;;;;38.90;56.80;;;;;;5006814;28;19924;-79
2022/08/08 09:55:27;;;;;;;;;;;38.60;56.80;;;;;;5010437;28;19916;-78
2022/08/08 09:58:06;;;;;;;;;;;39.30;56.70;;;;;;5009374;28;19917;-72
2022/08/08 10:00:35;;;;;;;;;;;40.20;57.10;;;;;;5003744;28;19910;-73
2022/08/08 10:03:01;;;;;;;;;;;39.80;56.40;;;;;;5004440;28;19952;-80
2022/08/08 10:05:28;;;;;;;;;;;39.40;56.40;;;;;;5010660;28;20489;-78
2022/08/08 10:07:54;;;;;;;;;;;38.90;56.30;;;;;;5006892;28;19913;-78
2022/08/08 10:10:24;;;;;;;;;;;37.30;57.00;;;;;;5012466;28;19921;-75
2022/08/08 10:12:50;;;;;;;;;;;35.80;58.60;;;;;;5008248;28;19925;-77
2022/08/08 10:15:15;;;;;;;;;;;34.10;59.70;;;;;;5013662;28;19913;-79
2022/08/08 10:17:48;;;;;;;;;;;32.50;60.90;;;;;;5011571;28;20007;-80
2022/08/08 10:20:14;;;;;;;;;;;31.40;61.90;;;;;;5007903;28;20355;-78
2022/08/08 10:22:52;;;;;;;;;;;30.50;63.00;;;;;;5008557;28;19924;-81
2022/08/08 10:25:19;;;;;;;;;;;30.00;63.70;;;;;;5010388;28;19914;-80
2022/08/08 10:27:48;;;;;;;;;;;29.70;64.00;;;;;;5013573;28;19913;-81
2022/08/08 10:30:15;;;;;;;;;;;29.50;64.40;;;;;;5013381;28;19909;-81
2022/08/08 10:32:41;;;;;;;;;;;29.50;64.30;;;;;;5012390;28;19913;-79
2022/08/08 10:35:07;;;;;;;;;;;29.40;64.20;;;;;;5015013;28;19976;-80
2022/08/08 10:37:33;;;;;;;;;;;29.40;64.60;;;;;;5011698;28;19913;-71
2022/08/08 10:40:00;;;;;;;;;;;29.30;65.00;;;;;;5007494;28;19914;-72
2022/08/08 10:42:36;;;;;;;;;;;29.20;64.90;;;;;;5013420;28;20288;-77
2022/08/08 10:45:03;;;;;;;;;;;29.40;65.00;;;;;;5012979;28;20287;-77
2022/08/08 10:47:28;;;;;;;;;;;29.80;64.60;;;;;;5011805;28;19925;-76
2022/08/08 10:49:55;;;;;;;;;;;30.70;63.70;;;;;;5014671;28;19918;-78
2022/08/08 10:52:28;;;;;;;;;;;31.20;62.90;;;;;;5012909;28;19918;-72
2022/08/08 10:54:58;;;;;;;;;;;31.00;62.50;;;;;;5012085;28;20376;-77
2022/08/08 10:57:24;;;;;;;;;;;30.50;63.00;;;;;;5013889;28;20361;-77
2022/08/08 10:59:58;;;;;;;;;;;30.20;63.70;;;;;;5011798;28;20391;-76
2022/08/08 11:02:29;;;;;;;;;;;29.80;63.80;;;;;;5013990;28;19913;-72
2022/08/08 11:04:58;;;;;;;;;;;29.60;64.00;;;;;;5005381;28;19985;-77
2022/08/08 11:07:37;;;;;;;;;;;29.30;64.50;;;;;;5013993;28;19910;-71
2022/08/08 11:10:04;;;;;;;;;;;29.30;64.70;;;;;;5011741;28;20056;-72
2022/08/08 11:12:31;;;;;;;;;;;29.30;64.70;;;;;;5012916;28;19917;-76
2022/08/08 11:15:00;;;;;;;;;;;29.30;64.70;;;;;;5010338;28;19968;-72
2022/08/08 11:17:27;;;;;;;;;;;29.20;64.70;;;;;;5012207;28;20356;-72
2022/08/08 11:19:53;;;;;;;;;;;29.10;65.00;;;;;;5005778;28;19945;-77
2022/08/08 11:22:22;;;;;;;;;;;29.00;65.10;;;;;;5012076;28;20011;-72
2022/08/08 11:24:47;;;;;;;;;;;29.00;65.20;;;;;;5008450;28;19922;-73
2022/08/08 11:27:14;;;;;;;;;;;28.90;65.20;;;;;;5007737;28;19997;-75
2022/08/08 11:29:41;;;;;;;;;;;29.00;64.70;;;;;;5008136;28;19920;-72
2022/08/08 11:32:08;;;;;;;;;;;30.00;64.00;;;;;;5011696;28;19913;-72
2022/08/08 11:34:36;;;;;;;;;;;30.90;63.30;;;;;;5011927;28;20012;-72
2022/08/08 11:37:02;;;;;;;;;;;31.70;63.00;;;;;;5012441;28;19992;-78
2022/08/08 11:39:29;;;;;;;;;;;32.60;62.50;;;;;;5018919;28;20001;-78
2022/08/08 11:41:55;;;;;;;;;;;33.20;61.20;;;;;;5011980;28;19922;-72
2022/08/08 11:44:21;;;;;;;;;;;33.20;60.70;;;;;;5012527;28;19921;-78
2022/08/08 11:46:47;;;;;;;;;;;33.50;61.50;;;;;;5011874;28;19956;-75
2022/08/08 11:49:13;;;;;;;;;;;33.60;61.10;;;;;;5011497;28;19917;-78
2022/08/08 11:51:39;;;;;;;;;;;33.40;61.10;;;;;;5011126;28;19956;-77
2022/08/08 11:54:06;;;;;;;;;;;33.10;60.70;;;;;;5011889;28;20400;-77
2022/08/08 11:56:32;;;;;;;;;;;32.80;61.20;;;;;;5011814;28;20352;-71
2022/08/08 11:59:04;;;;;;;;;;;32.80;61.40;;;;;;5011453;28;19955;-74
2022/08/08 12:01:31;;;;;;;;;;;33.40;61.00;;;;;;5007830;28;19921;-81
2022/08/08 12:03:57;;;;;;;;;;;33.80;60.70;;;;;;5006558;28;19956;-83
2022/08/08 12:06:23;;;;;;;;;;;34.00;60.50;;;;;;5003466;28;19960;-84
2022/08/08 12:08:49;;;;;;;;;;;34.30;60.20;;;;;;5020390;28;19909;-73
2022/08/08 12:11:17;;;;;;;;;;;34.30;59.90;;;;;;5010138;28;19984;-73
2022/08/08 12:13:43;;;;;;;;;;;34.80;59.70;;;;;;5013145;28;20011;-78
2022/08/08 12:16:10;;;;;;;;;;;34.90;59.80;;;;;;5011911;28;20334;-73
2022/08/08 12:19:02;;;;;;;;;;;35.20;59.90;;;;;;5013310;28;19913;-83
2022/08/08 12:21:31;;;;;;;;;;;34.80;59.30;;;;;;5007335;28;19919;-84
2022/08/08 12:24:03;;;;;;;;;;;34.90;59.40;;;;;;5014484;28;19980;-73
2022/08/08 12:26:47;;;;;;;;;;;34.90;59.60;;;;;;5008415;28;19915;-82
2022/08/08 12:29:21;;;;;;;;;;;35.10;59.50;;;;;;5014117;28;19918;-83
2022/08/08 12:31:59;;;;;;;;;;;34.90;59.50;;;;;;5005078;28;20546;-81
2022/08/08 12:34:37;;;;;;;;;;;35.00;59.40;;;;;;5011822;28;20641;-73
2022/08/08 12:37:06;;;;;;;;;;;34.70;59.60;;;;;;5006709;28;19910;-83
2022/08/08 12:39:32;;;;;;;;;;;34.80;59.60;;;;;;5013846;28;20295;-82
2022/08/08 12:41:58;;;;;;;;;;;34.70;59.40;;;;;;5011849;28;19917;-81
2022/08/08 12:44:28;;;;;;;;;;;34.80;60.10;;;;;;5004141;28;20028;-74
2022/08/08 12:46:57;;;;;;;;;;;34.30;59.90;;;;;;5009336;28;19909;-73
2022/08/08 12:49:27;;;;;;;;;;;34.50;59.50;;;;;;5009428;28;19918;-73
2022/08/08 12:51:52;;;;;;;;;;;34.20;59.00;;;;;;5010076;28;19927;-80
2022/08/08 12:54:22;;;;;;;;;;;34.40;60.50;;;;;;5007207;28;20300;-73
2022/08/08 12:56:48;;;;;;;;;;;34.50;59.60;;;;;;5007416;28;20345;-81
2022/08/08 12:59:15;;;;;;;;;;;34.70;58.90;;;;;;5011746;28;19919;-72
2022/08/08 13:01:41;;;;;;;;;;;34.80;59.00;;;;;;5011646;28;19921;-74
2022/08/08 13:04:13;;;;;;;;;;;34.70;58.70;;;;;;5011058;28;19921;-80
2022/08/08 13:06:38;;;;;;;;;;;34.90;59.30;;;;;;5011215;28;19909;-79
2022/08/08 13:09:08;;;;;;;;;;;34.90;58.30;;;;;;5011040;28;19987;-79
2022/08/08 13:11:34;;;;;;;;;;;34.90;58.80;;;;;;5011407;28;20395;-81
2022/08/08 13:14:00;;;;;;;;;;;34.90;58.20;;;;;;5011554;28;20016;-79
2022/08/08 13:16:26;;;;;;;;;;;34.70;58.40;;;;;;5011422;28;20423;-79
2022/08/08 13:18:52;;;;;;;;;;;34.70;58.50;;;;;;5008872;28;20268;-78
2022/08/08 13:21:17;;;;;;;;;;;34.70;58.20;;;;;;5007250;28;20013;-81
2022/08/08 13:23:43;;;;;;;;;;;34.50;59.00;;;;;;4992464;28;20380;-81
2022/08/08 13:26:09;;;;;;;;;;;34.60;58.40;;;;;;5008739;28;19984;-74
2022/08/08 13:28:34;;;;;;;;;;;34.60;58.60;;;;;;5011074;28;19940;-74
2022/08/08 13:31:03;;;;;;;;;;;34.40;58.40;;;;;;5011457;28;19917;-81
2022/08/08 13:33:29;;;;;;;;;;;34.10;58.60;;;;;;5005173;28;20339;-77
2022/08/08 13:35:55;;;;;;;;;;;34.50;59.20;;;;;;4999747;28;20021;-83
2022/08/08 13:38:20;;;;;;;;;;;34.90;58.70;;;;;;5011361;28;20234;-82
2022/08/08 13:40:46;;;;;;;;;;;34.70;58.90;;;;;;5016593;28;19909;-81
2022/08/08 13:43:15;;;;;;;;;;;35.00;58.70;;;;;;5012775;28;19925;-82
2022/08/08 13:45:41;;;;;;;;;;;34.80;58.70;;;;;;5015815;28;19992;-80
2022/08/08 13:48:13;;;;;;;;;;;35.10;58.20;;;;;;5017403;28;19928;-81
2022/08/08 13:50:46;;;;;;;;;;;35.00;58.50;;;;;;5016141;28;19909;-74
2022/08/08 13:53:11;;;;;;;;;;;35.30;57.80;;;;;;5014763;28;20692;-72
2022/08/08 13:55:37;;;;;;;;;;;35.10;58.10;;;;;;5016009;28;19909;-82
2022/08/08 13:58:03;;;;;;;;;;;34.70;57.90;;;;;;5015714;28;19913;-73
2022/08/08 14:00:37;;;;;;;;;;;34.90;58.70;;;;;;5015891;28;19959;-82
2022/08/08 14:03:02;;;;;;;;;;;35.10;58.60;;;;;;5014238;28;19910;-82
2022/08/08 14:05:29;;;;;;;;;;;35.20;57.90;;;;;;5013749;28;19906;-73
2022/08/08 14:07:55;;;;;;;;;;;34.90;57.40;;;;;;5015826;28;19909;-73
2022/08/08 14:10:21;;;;;;;;;;;35.30;57.50;;;;;;5015228;28;19917;-83
2022/08/08 14:12:47;;;;;;;;;;;35.30;57.50;;;;;;5015002;28;20025;-83
2022/08/08 14:15:23;;;;;;;;;;;35.60;57.80;;;;;;5005431;28;20036;-81
2022/08/08 14:17:55;;;;;;;;;;;35.70;57.60;;;;;;5008840;28;19988;-73
2022/08/08 14:20:28;;;;;;;;;;;35.60;57.40;;;;;;5014376;28;19909;-73
2022/08/08 14:22:54;;;;;;;;;;;36.30;57.70;;;;;;5011681;28;19909;-79
2022/08/08 14:25:19;;;;;;;;;;;36.40;57.20;;;;;;5014282;28;19913;-80
2022/08/08 14:27:45;;;;;;;;;;;36.80;57.10;;;;;;5009571;28;19918;-73
2022/08/08 14:30:13;;;;;;;;;;;37.30;56.30;;;;;;5009552;28;19914;-80
2022/08/08 14:32:51;;;;;;;;;;;37.90;55.80;;;;;;5007854;28;20103;-70
2022/08/08 14:35:34;;;;;;;;;;;38.20;55.70;;;;;;5005563;28;19909;-81
2022/08/08 14:38:01;;;;;;;;;;;38.10;55.60;;;;;;5006394;28;20400;-82